x

8454049 - Quonset Point, Ri (qptr1) Weather Station

6:12am - Sun 23rd Jul 2017 All times are EDT. -4 hours from GMT.

  • Wind
    14mph, 18mph gusts
  • Sea Temp 74°f
  • Air Temp 74°f
  • Sea Pressure 1007.4mb
  • 8454049 - Quonset Point, Ri
  • 8454049 - Quonset Point, Ri

More Historic Weather Station data

Upgrade to MSW Pro to gain access to the past 30 days of data for over 8000 Wavebouys and Weather Stations around the globe.

Join Pro

Comparision Forecast

View Surf forecast
   
Sun 07/23 6:12am 14 18 mph 1007.4mb 74f 74f
6:06am 9 11 mph 1007.4mb 74f 73f
6:00am 7 9 mph 1007.4mb 74f 73f
5:54am 6 7 mph 1007.4mb 74f 72f
5:48am 5 6 mph - - -
5:42am 5 6 mph 1007.2mb 74f 73f
5:36am 2 3 mph 1007.1mb 74f 73f
5:30am 3 5 mph 1007.1mb 74f 73f
5:24am 3 6 mph 1006.9mb 74f 73f
5:18am 6 7 mph 1007mb 73f 73f
5:12am 6 7 mph 1007mb 73f 73f
5:06am 6 7 mph 1007mb 73f 73f
5:00am 6 7 mph 1007mb 73f 73f
4:54am 5 6 mph 1007mb 73f 73f
4:48am 2 3 mph 1007mb 73f 73f
4:42am 2 3 mph 1007mb 73f 73f
4:36am 2 3 mph 1007mb 73f 73f
4:30am 3 6 mph 1007mb 73f 73f
4:24am 6 7 mph 1006.9mb 73f 73f
4:18am 6 7 mph 1006.8mb 73f 73f
4:12am 3 6 mph 1006.8mb 73f 73f
4:06am 5 6 mph 1006.9mb 73f 73f
4:00am 6 7 mph 1006.8mb 73f -
3:54am 6 7 mph 1006.9mb 73f 73f
3:48am 5 6 mph - - -
3:42am 6 6 mph 1007.1mb 74f 73f
3:36am 6 7 mph 1007.1mb 74f 73f
3:30am 5 6 mph 1007.2mb 75f 73f
3:24am 3 6 mph 1007.2mb 75f 73f
3:18am 3 6 mph 1007.2mb 75f 73f
3:12am 5 6 mph 1007.2mb 75f 73f
3:06am 5 6 mph 1007.1mb 75f 73f
3:00am 3 5 mph 1007.2mb 74f 73f
2:54am 3 5 mph 1007.2mb 74f 73f
2:48am 5 6 mph 1007.3mb 74f 73f
2:42am 5 6 mph 1007.3mb - -
2:36am 5 6 mph 1007.3mb - -
2:30am 5 6 mph 1007.3mb 73f 73f
2:24am 5 6 mph 1007.3mb 73f 73f
2:18am 5 5 mph - - -
2:12am 3 5 mph 1007.5mb 72f 73f
2:06am 2 3 mph 1007.5mb 72f 73f
2:00am 3 5 mph 1007.5mb 72f 73f
1:54am 3 3 mph 1007.5mb 73f 73f
1:48am 3 3 mph 1007.6mb 73f 73f
1:42am 1 2 mph 1007.8mb 72f -
1:36am  -  2 mph 1007.9mb 73f -
1:30am 1 2 mph 1008mb 74f 73f
1:24am 2 2 mph 1008.1mb 76f 73f
1:18am 2 3 mph 1008.1mb 76f 73f
1:12am 3 6 mph 1008.2mb 76f 73f
1:06am 6 6 mph 1008.3mb 76f 73f
1:00am 2 2 mph 1008.3mb 76f 73f
12:54am 2 3 mph 1008.4mb 76f 73f
12:48am 3 5 mph 1008.3mb 76f 73f
12:42am 5 5 mph 1008.4mb 76f 73f
12:36am 3 5 mph 1008.6mb 76f 73f
12:30am 2 2 mph 1008.6mb 75f 73f
12:24am 2 3 mph 1008.7mb 75f 73f
12:18am 2 2 mph 1008.8mb 75f 73f
12:12am 2 7 mph 1008.7mb 75f 73f
12:06am 6 7 mph 1008.8mb 74f 73f
12:00am 2 6 mph 1008.8mb 74f 73f
Sat 07/22 11:54pm 7 8 mph 1008.9mb 74f 73f
11:48pm 1 2 mph 1008.8mb - -
11:42pm 2 5 mph 1008.7mb 73f 73f
11:36pm 5 6 mph 1008.8mb 73f 73f
11:30pm 5 6 mph 1008.9mb 71f 74f
11:24pm 6 6 mph 1008.9mb 71f 73f
11:18pm 5 6 mph - - -
11:12pm 5 6 mph 1009mb 71f 74f
11:06pm 6 6 mph 1009mb 71f 74f
11:00pm 5 6 mph 1008.9mb 71f 73f
10:54pm 6 6 mph 1009mb 71f 74f
10:48pm 6 6 mph 1009.1mb 71f 74f
10:42pm 5 6 mph 1009.1mb 70f 73f
10:36pm 6 7 mph 1009.1mb 70f 73f
10:30pm 6 6 mph 1009mb 70f 73f
10:24pm 5 6 mph 1009.1mb 70f 73f
10:18pm 7 9 mph 1009mb - -
10:12pm 9 10 mph 1009mb 70f 73f
10:06pm 8 9 mph 1008.9mb 70f 74f
10:00pm 7 8 mph 1009mb 70f 73f
9:48pm 6 7 mph 1008.8mb - -
9:42pm 6 8 mph 1008.9mb 70f 74f
9:36pm 8 8 mph 1009mb 70f 74f
9:30pm 7 8 mph 1008.9mb 70f 74f
9:24pm 6 7 mph 1008.9mb 71f 74f
9:18pm 6 7 mph 1008.8mb 71f 74f
9:12pm 5 6 mph 1008.8mb 71f 74f
9:06pm 6 7 mph 1008.8mb 71f 74f
9:00pm 6 7 mph 1008.9mb 71f 74f
8:48pm 6 6 mph 1009mb - -
8:42pm 5 6 mph 1009mb 71f 74f
8:36pm 5 6 mph 1009mb 71f 73f
8:30pm 6 6 mph 1009.1mb 72f 74f
8:24pm 6 7 mph 1009.1mb 72f 74f
8:18pm 6 7 mph 1009.2mb - -
8:12pm 7 8 mph 1009.2mb 72f 74f
8:06pm 8 9 mph 1009.2mb 72f 74f
8:00pm 9 10 mph 1009.2mb 72f 74f
7:42pm 8 9 mph 1009.2mb 73f 74f
7:36pm 8 9 mph 1009.2mb 73f 74f
7:30pm 7 9 mph 1009.2mb 74f 74f
7:24pm 8 9 mph 1009.2mb 74f 74f
7:12pm 9 10 mph 1009.1mb 74f 74f
7:06pm 9 11 mph 1009.1mb 76f 75f
7:00pm 10 11 mph 1009mb 76f 75f
6:48pm 10 13 mph 1009.1mb - -
6:42pm 10 13 mph 1009.3mb 76f 75f
6:36pm 10 13 mph 1009.3mb 76f 75f
6:30pm 11 13 mph 1009.3mb 76f 75f
6:24pm 10 11 mph 1009.4mb 77f 75f
6:18pm 10 11 mph 1009.4mb - -
6:12pm 10 13 mph 1009.4mb 77f 76f
6:06pm 9 11 mph 1009.3mb 77f 76f
6:00pm 10 11 mph 1009.4mb 77f 76f
5:54pm 9 10 mph 1009.3mb 77f 76f
5:48pm 8 9 mph 1009.3mb - -
5:42pm 9 10 mph 1009.3mb 77f 76f
5:36pm 9 10 mph 1009.4mb 77f 76f
5:30pm 9 10 mph 1009.4mb 77f 76f
5:24pm 9 11 mph 1009.5mb 77f 76f
5:18pm 8 9 mph 1009.4mb 77f 76f
5:12pm 9 10 mph 1009.5mb 77f 77f
5:06pm 9 11 mph 1009.5mb 77f 77f
5:00pm 8 10 mph 1009.5mb 77f 77f
4:54pm 8 10 mph 1009.5mb 77f 76f
4:48pm 9 10 mph - - -
4:42pm 9 10 mph 1009.7mb 77f 76f
4:36pm 8 9 mph 1009.8mb 77f 76f
4:30pm 9 11 mph 1009.8mb 77f 76f
4:24pm 10 11 mph 1009.9mb 77f 76f
4:18pm 9 11 mph 1010mb 77f 76f
4:12pm 10 11 mph 1010mb 77f 77f
4:06pm 10 13 mph 1010mb 77f 76f
4:00pm 11 14 mph 1010.1mb 77f 77f
3:54pm 11 11 mph 1010.2mb 77f 77f
3:48pm 11 13 mph 1010.2mb 77f 77f
3:42pm 10 13 mph 1010.2mb 77f 77f
3:36pm 10 11 mph 1010.3mb 77f 77f
3:30pm 11 14 mph 1010.3mb 77f -
3:24pm 13 14 mph 1010.3mb 77f 77f
3:18pm 13 14 mph 1010.3mb 77f 77f
3:12pm 13 14 mph 1010.3mb 77f 77f
3:06pm 14 15 mph 1010.4mb 76f 77f
3:00pm 14 15 mph 1010.4mb 76f 77f
2:54pm 14 14 mph 1010.5mb 75f 77f
2:48pm 13 14 mph - - -
2:42pm 14 16 mph 1010.7mb 74f 77f
2:36pm 15 16 mph 1010.7mb 76f 77f
2:30pm 14 16 mph 1010.7mb 76f 77f
2:24pm 15 16 mph 1010.8mb 75f 78f
2:18pm 15 16 mph 1010.8mb 74f 78f
2:12pm 11 13 mph 1010.8mb 74f 78f
2:06pm 10 10 mph 1010.9mb 74f 79f
2:00pm 8 9 mph 1011mb 74f 79f
1:54pm 5 5 mph 1011mb 73f 80f
1:48pm 3 5 mph 1011mb 73f 80f
1:42pm 3 3 mph 1011mb 72f 80f
1:36pm 2 3 mph 1011.1mb 73f 80f
1:30pm 2 2 mph 1011.1mb 73f 80f
1:24pm 2 2 mph 1011.1mb 72f 80f
1:18pm 1 2 mph 1011.1mb 72f 81f
1:12pm 1 1 mph 1011.1mb 72f 81f
1:06pm 1 1 mph 1011.2mb 72f 82f
1:00pm 1 2 mph 1011.3mb 71f 82f
12:54pm  -  1 mph 1011.4mb 72f 82f
12:48pm 1 1 mph 1011.5mb 73f 83f
12:42pm  -  1 mph 1011.6mb 75f 85f
12:36pm  -  0 mph 1011.5mb 73f 84f
12:30pm  -  1 mph 1011.5mb 73f 81f
12:24pm  -  1 mph 1011.5mb 74f 80f
12:18pm 1 1 mph - - -
12:12pm 1 2 mph 1011.6mb 74f 80f
12:06pm 1 2 mph 1011.7mb 73f 80f
12:00pm 1 1 mph 1011.8mb 72f 80f
11:54am 1 1 mph 1011.8mb 73f 80f
11:48am 1 2 mph - - -
11:42am 2 3 mph 1011.9mb 73f 79f
11:36am 2 3 mph 1011.9mb 73f 78f
11:30am 3 3 mph 1011.8mb 72f 78f
11:24am 3 5 mph 1011.9mb 73f 78f
11:18am 3 5 mph - - -
11:12am 3 5 mph 1011.8mb 72f 78f
11:06am 3 3 mph 1011.8mb 72f 78f
11:00am 3 5 mph 1011.9mb 71f 78f
10:54am 3 5 mph 1011.8mb 71f 78f
10:48am 5 6 mph - - -
10:42am 5 6 mph 1011.8mb 70f 78f
10:36am 5 6 mph 1011.8mb 70f 78f
10:30am 5 6 mph 1011.8mb 70f 78f
10:24am 6 7 mph 1011.8mb 70f 77f
10:18am 5 8 mph 1011.8mb 70f 78f
10:12am 6 7 mph 1011.9mb 70f 78f
10:06am 5 6 mph 1011.9mb 70f 77f
10:00am 5 6 mph 1011.8mb 70f 76f
9:54am 6 7 mph 1011.8mb 70f 76f
9:48am 5 5 mph 1011.9mb 69f 76f
9:42am 5 5 mph 1011.8mb 70f 76f
9:36am 3 5 mph 1011.8mb 70f 76f
9:30am 5 5 mph 1011.8mb 70f 76f
9:24am 3 3 mph 1011.9mb 70f 75f
9:18am 3 3 mph - - -
9:12am 3 3 mph 1012mb 70f 76f
9:06am 2 3 mph 1012mb 71f 76f
9:00am 2 3 mph 1011.9mb 71f 76f
8:54am 1 2 mph 1012mb 71f 78f
8:48am 1 2 mph - - -
8:42am 2 2 mph 1012.1mb 72f 77f
8:36am 2 3 mph 1012.2mb 72f 76f
8:30am 2 3 mph 1012.2mb 72f 76f
8:24am 2 3 mph 1012.2mb 72f 76f
8:18am 2 3 mph 1012.1mb 72f 76f
8:12am 1 2 mph 1012.2mb 72f 77f
8:06am 2 2 mph 1012.1mb 72f 76f
8:00am 2 3 mph 1012.1mb 73f 75f
7:54am 2 3 mph 1012mb 73f 75f
7:48am 2 3 mph 1012.1mb 73f 75f
7:42am 2 3 mph 1012.1mb 73f 75f
7:36am 3 5 mph 1012.1mb 73f 74f
7:30am 3 5 mph 1012mb 73f 74f
7:24am 2 3 mph 1011.9mb 74f 75f
7:18am  -  1 mph 1011.8mb 74f 77f
7:12am  -  1 mph 1011.7mb 75f 76f
7:06am  -  1 mph 1011.7mb 75f 76f
7:00am  -  3 mph 1011.7mb 75f 74f
6:54am 2 5 mph 1011.7mb 75f 73f
6:48am 3 6 mph - - -
6:42am 5 7 mph 1011.4mb 75f 73f
6:36am 3 6 mph 1011.2mb 75f 73f
6:30am 3 6 mph 1011.1mb 75f 73f
6:24am 3 6 mph 1011.1mb 76f 72f
6:18am 5 6 mph - - -
6:12am 2 5 mph 1010.9mb 76f 73f
6:06am 5 6 mph 1010.8mb 76f 72f
6:00am 5 6 mph 1010.7mb 76f 72f
5:54am 5 6 mph 1010.8mb 76f 73f
5:48am 3 5 mph 1010.8mb 76f 73f
5:42am 2 3 mph 1010.7mb 75f 73f
5:36am 2 3 mph 1010.7mb 75f 73f
5:30am 1 3 mph 1010.6mb 75f 73f
5:24am 2 3 mph 1010.6mb 75f 73f
5:18am 2 6 mph 1010.5mb 75f 73f
5:12am 5 6 mph 1010.6mb 75f 73f
5:06am 2 3 mph 1010.7mb 75f 74f
5:00am 2 5 mph 1010.6mb 75f 74f
4:54am 2 3 mph 1010.6mb 75f 74f
4:48am 2 3 mph 1010.6mb 75f 74f
4:42am 3 3 mph 1010.6mb 74f 74f
4:36am 2 3 mph 1010.6mb 74f 75f
4:30am 3 6 mph 1010.5mb 73f 75f
4:24am 5 7 mph 1010.5mb 73f 75f
4:18am 6 8 mph 1010.5mb 73f 75f
4:12am 6 8 mph 1010.6mb 73f 75f
4:06am 3 7 mph 1010.6mb 73f 75f
4:00am 6 7 mph 1010.7mb 73f 76f
3:54am 5 7 mph 1010.7mb 73f 76f
3:48am 5 7 mph - - -
3:42am 3 5 mph 1010.8mb 73f 76f
3:36am 3 6 mph 1010.8mb 73f 76f
3:30am 3 5 mph 1010.7mb 73f 76f
3:24am 3 6 mph 1010.7mb 73f 76f
3:18am 5 6 mph - - -
3:12am 3 6 mph 1010.7mb 75f 76f
3:06am 2 3 mph 1010.8mb 76f 75f
3:00am 3 5 mph 1010.9mb 76f 76f
2:54am 3 5 mph 1011mb 75f 76f
2:48am 2 6 mph - - -
2:42am 3 6 mph 1011.1mb 75f 76f
2:36am 5 5 mph 1011.1mb 75f 76f
2:30am 3 5 mph 1011.1mb 75f 75f
2:24am 5 6 mph 1011mb 74f 75f
2:18am 6 6 mph - - -
2:12am 5 7 mph 1011mb 74f 74f
2:06am 6 7 mph 1011.1mb 74f 74f
2:00am 6 6 mph 1011.1mb 75f 74f
1:54am 6 6 mph 1011.1mb 75f 74f
1:48am 6 7 mph 1011.1mb 75f 74f
1:42am 7 8 mph 1011.1mb 75f -
1:36am 6 7 mph 1011mb 75f -
1:30am 5 6 mph 1010.9mb 75f 75f
1:24am 6 6 mph 1010.9mb 75f 75f
1:18am 6 6 mph - - -
1:12am 6 6 mph 1010.9mb 74f 75f
1:06am 6 6 mph 1010.9mb 74f 76f
1:00am 6 6 mph 1010.9mb 74f 76f
12:54am 6 6 mph 1011mb 75f 75f
12:48am 6 7 mph - - -
12:42am 7 8 mph 1011mb 76f 76f
12:36am 8 9 mph 1011mb 76f 76f
12:30am 7 7 mph 1011.1mb 77f 76f
12:24am 6 7 mph 1011.1mb 77f 77f
12:18am 6 6 mph 1011.1mb 77f 77f
12:12am 5 6 mph 1011.1mb 77f 77f
12:06am 5 6 mph 1011.2mb 77f 77f
12:00am 3 6 mph 1011.2mb 77f 77f
Fri 07/21 11:54pm 6 7 mph 1011.2mb 77f 77f
11:48pm 6 7 mph - - -
11:42pm 6 7 mph 1010.9mb 77f 77f
11:36pm 7 8 mph 1010.8mb 77f 77f
11:30pm 7 8 mph 1010.7mb 77f 77f
11:24pm 7 8 mph 1010.7mb 77f 77f
11:18pm 7 7 mph - - -
11:12pm 6 6 mph 1010.6mb 77f 77f
11:06pm 6 7 mph 1010.6mb 77f 77f
11:00pm 6 7 mph 1010.6mb 76f 77f
10:54pm 6 7 mph 1010.6mb 76f 77f
10:48pm 6 7 mph 1010.6mb 75f 78f
10:42pm 6 8 mph 1010.5mb 74f 78f
10:36pm 7 8 mph 1010.5mb 72f 78f
10:30pm 7 7 mph 1010.5mb 72f 78f
10:24pm 7 7 mph 1010.5mb 72f 78f
10:18pm 6 7 mph 1010.5mb - -
10:12pm 7 7 mph 1010.5mb 72f 78f
10:06pm 6 7 mph 1010.6mb 72f 78f
10:00pm 6 7 mph 1010.5mb 72f 78f
9:54pm 6 6 mph 1010.5mb 72f 78f
9:48pm 5 6 mph 1010.5mb - -
9:42pm 6 6 mph 1010.5mb 70f 78f
9:36pm 6 6 mph 1010.4mb 69f 78f
9:30pm 6 6 mph 1010.4mb 69f 78f
9:24pm 5 6 mph 1010.3mb 69f 78f
9:18pm 5 7 mph 1010.3mb - -
9:12pm 6 6 mph 1010.3mb 70f 79f
9:06pm 6 7 mph 1010.2mb 70f 79f
9:00pm 6 7 mph 1010.2mb 70f 79f
8:54pm 6 7 mph 1010.3mb 70f 79f
8:48pm 6 7 mph 1010.3mb - -
8:42pm 6 6 mph 1010.3mb 70f 79f
8:36pm 6 7 mph 1010.3mb 70f 80f
8:30pm 6 7 mph 1010.3mb 71f 80f
8:24pm 6 6 mph 1010.3mb 70f 80f
8:18pm 6 6 mph 1010.2mb - -
8:12pm 6 7 mph 1010.2mb 70f 80f
8:06pm 7 7 mph 1010.2mb 71f 81f
8:00pm 8 9 mph 1010.1mb 71f 81f
7:54pm 9 10 mph 1010.1mb 71f 82f
7:48pm 10 11 mph 1010mb - -
7:42pm 10 14 mph 1010mb 71f 82f
7:36pm 11 14 mph 1009.9mb 71f 83f
7:30pm 13 14 mph 1009.9mb 71f 83f
7:24pm 10 14 mph 1009.9mb 71f 83f
7:18pm 10 11 mph 1009.8mb - -
7:12pm 10 11 mph 1009.8mb 72f 82f
7:00pm 11 14 mph 1009.9mb 72f 83f
6:54pm 11 14 mph 1009.8mb 72f 83f
6:48pm 10 16 mph 1009.8mb 72f 82f
6:42pm 10 13 mph 1009.8mb 73f 83f
6:36pm 11 13 mph 1009.7mb 73f 83f
6:30pm 13 14 mph 1009.6mb 73f 83f
6:24pm 11 14 mph 1009.6mb 73f 83f
6:18pm 11 15 mph 1009.5mb - -
6:12pm 13 14 mph 1009.5mb 74f 83f
6:06pm 11 15 mph 1009.6mb 74f 83f
6:00pm 11 14 mph 1009.7mb 75f 83f
5:54pm 14 15 mph 1009.6mb 75f 83f
5:48pm 11 14 mph 1009.7mb 76f 83f
5:42pm 11 16 mph 1009.6mb 77f 83f
5:36pm 14 15 mph 1009.6mb 78f 83f
5:30pm 13 14 mph 1009.6mb 78f 83f
5:24pm 11 16 mph 1009.6mb 78f 84f
5:18pm 14 16 mph 1009.7mb 78f 84f
5:12pm 13 20 mph 1009.6mb 78f 85f
5:06pm 15 18 mph 1009.6mb 78f 86f
5:00pm 10 15 mph 1009.7mb 78f 86f
4:54pm 11 16 mph 1009.6mb 78f 87f
4:48pm 11 14 mph 1009.6mb 78f 86f
4:42pm 10 15 mph 1009.6mb 78f 85f
4:36pm 13 15 mph 1009.5mb 78f 86f
4:30pm 13 16 mph 1009.6mb 78f 86f
4:24pm 14 17 mph 1009.5mb 77f 86f
4:18pm 11 16 mph - - -
4:12pm 9 15 mph 1009.5mb 77f 86f
4:06pm 15 16 mph 1009.5mb 77f 85f
4:00pm 9 13 mph 1009.5mb 77f 86f
3:54pm 10 16 mph 1009.5mb 77f 86f
3:48pm 13 15 mph 1009.5mb 77f 86f
3:42pm 13 16 mph 1009.5mb 77f 86f
3:36pm 8 15 mph 1009.7mb 77f 88f
3:30pm 14 17 mph 1009.6mb 77f 86f
3:24pm 13 16 mph 1009.6mb 77f 85f
3:18pm 8 14 mph - - -
3:12pm 6 8 mph 1009.7mb 77f 85f
3:06pm 7 8 mph 1009.7mb 77f 83f
3:00pm 6 9 mph 1009.7mb 77f 83f
2:54pm 6 7 mph 1009.6mb 77f 83f
2:48pm 5 7 mph 1009.7mb 76f 83f
2:42pm 5 6 mph 1009.9mb 76f 83f
2:36pm 7 8 mph 1010.1mb 75f 83f
2:30pm 7 8 mph 1010.1mb 75f 83f
2:24pm 8 9 mph 1010mb 76f 82f
2:18pm 7 9 mph - - -
2:12pm 8 9 mph 1010.2mb 74f 82f
2:06pm 7 9 mph 1010.3mb 73f 82f
2:00pm 8 9 mph 1010.4mb 73f 82f
1:54pm 8 8 mph 1010.3mb 74f 81f
1:48pm 8 9 mph 1010.4mb 74f 81f
1:42pm 9 10 mph 1010.5mb 73f 81f
1:36pm 9 9 mph 1010.7mb 73f 80f
1:30pm 9 10 mph 1010.8mb 73f 80f
1:24pm 8 9 mph 1010.9mb 73f 81f
1:18pm 6 7 mph - - -
1:12pm 7 8 mph 1011mb 73f 81f
1:06pm 7 8 mph 1011mb 74f 80f
1:00pm 7 8 mph 1010.9mb 73f 81f
12:54pm 8 8 mph 1011mb 74f 81f
12:48pm 7 8 mph 1011mb 74f 81f
12:42pm 8 8 mph 1011mb 73f 80f
12:36pm 7 8 mph 1010.9mb 73f 81f
12:30pm 6 6 mph 1011.1mb 71f 81f
12:24pm 6 7 mph 1011.1mb 71f 81f
12:18pm 7 8 mph - - -
12:12pm 6 7 mph 1011.3mb 72f 81f
12:06pm 3 5 mph 1011.4mb 73f 83f
12:00pm 3 6 mph 1011.5mb 74f 83f
11:54am 6 8 mph 1011.5mb 75f 83f
11:48am 3 9 mph 1011.5mb 75f 83f
11:42am 7 9 mph 1011.6mb 74f 82f
11:36am 5 8 mph 1011.6mb 74f 82f
11:30am 7 8 mph 1011.6mb 74f 82f
11:24am 5 9 mph 1011.7mb 74f 82f
11:18am 8 10 mph - - -
11:12am 7 8 mph 1011.7mb 74f 81f
11:06am 6 7 mph 1011.7mb 74f 81f
11:00am 7 11 mph 1011.7mb 73f 81f
10:54am 7 8 mph 1011.7mb 73f 81f
10:48am 6 11 mph 1011.8mb 73f 82f
10:42am 10 13 mph 1011.8mb 73f 81f
10:36am 8 14 mph 1011.8mb 73f 81f
10:30am 8 11 mph 1011.9mb 73f 81f
10:24am 7 13 mph 1011.9mb 73f 82f
10:18am 8 11 mph 1011.9mb 73f 81f
10:12am 7 14 mph 1011.8mb 73f 81f
10:06am 9 14 mph 1011.8mb 72f 81f
10:00am 8 13 mph 1011.8mb 72f 80f
9:54am 8 14 mph 1011.8mb 71f 81f
9:48am 8 16 mph 1011.7mb 71f 80f
9:42am 8 13 mph 1011.9mb 71f 80f
9:36am 9 13 mph 1011.9mb 71f 80f
9:30am 8 11 mph 1011.8mb 71f 80f
9:24am 7 9 mph 1011.8mb 70f 80f
9:18am 5 9 mph - - -
9:12am 5 8 mph 1011.7mb 69f 80f
9:06am 7 10 mph 1011.7mb 70f 80f
9:00am 7 11 mph 1011.8mb 70f 79f
8:54am 8 13 mph 1011.8mb 70f 80f
8:48am 7 11 mph 1011.7mb 70f 79f
8:42am 8 14 mph 1011.8mb 70f 79f
8:36am 8 11 mph 1011.8mb 70f 79f
8:30am 9 13 mph 1011.7mb 70f 79f
8:24am 7 11 mph 1011.6mb 70f 79f
8:18am 9 13 mph 1011.6mb 70f 78f
8:12am 9 10 mph 1011.7mb 70f 78f
8:06am 7 11 mph 1011.7mb 70f 78f
8:00am 8 13 mph 1011.7mb 71f 78f
7:54am 9 11 mph 1011.7mb 71f 78f
7:48am 6 9 mph 1011.6mb 71f 78f
7:42am 8 10 mph 1011.6mb 71f 78f
7:36am 8 10 mph 1011.6mb 71f 78f
7:30am 7 10 mph 1011.6mb 71f 77f
7:24am 7 10 mph 1011.6mb 71f 77f
7:18am 6 9 mph 1011.4mb 71f 77f
7:12am 6 8 mph 1011.4mb 72f 77f
7:06am 7 9 mph 1011.4mb 72f 76f
7:00am 6 8 mph 1011.2mb 73f 76f
6:54am 6 10 mph 1011.1mb 73f 76f
6:48am 7 10 mph - - -
6:42am 7 10 mph 1011.1mb 73f 76f
6:36am 6 10 mph 1011.1mb 73f 75f
6:30am 9 11 mph 1010.9mb 73f 75f
6:24am 7 11 mph 1010.9mb 74f 75f
6:18am 9 11 mph 1010.9mb 74f 74f
6:12am 8 13 mph 1011mb 74f 74f
6:06am 7 9 mph 1011mb 74f 74f
6:00am 7 9 mph 1010.9mb 74f 74f
5:54am 7 10 mph 1010.8mb 74f 74f
5:48am 7 10 mph - - -
5:42am 8 11 mph 1010.8mb 74f 74f
5:36am 8 10 mph 1010.7mb 74f 73f
5:30am 8 11 mph 1010.7mb 74f 73f
5:24am 7 10 mph 1010.6mb 74f 73f
5:18am 8 13 mph 1010.5mb 74f 74f
5:12am 8 10 mph 1010.5mb 74f 74f
5:06am 8 11 mph 1010.5mb 74f 74f
5:00am 7 10 mph 1010.5mb 74f 74f
4:54am 7 10 mph 1010.5mb 74f 74f
4:48am 6 9 mph - - -
4:42am 6 8 mph 1010.4mb 74f 74f
4:36am 6 8 mph 1010.4mb 74f 74f
4:30am 6 9 mph 1010.4mb 74f 74f
4:24am 8 10 mph 1010.4mb 74f 74f
4:18am 7 9 mph 1010.4mb 74f 74f
4:12am 6 7 mph 1010.3mb 74f 74f
4:06am 6 8 mph 1010.3mb 74f 74f
4:00am 5 7 mph 1010.3mb 74f 74f
3:54am 6 7 mph 1010.2mb 74f 74f
3:48am 2 6 mph - - -
3:42am 3 6 mph 1010.2mb 74f 74f
3:36am 6 7 mph 1010.3mb 74f 74f
3:30am 6 7 mph 1010.3mb 74f 74f
3:24am 6 7 mph 1010.3mb 75f 74f
3:18am 5 6 mph - - -
3:12am 6 7 mph 1010.3mb 75f 74f
3:06am 6 7 mph 1010.4mb 75f 74f
3:00am 6 7 mph 1010.4mb 75f 74f
2:54am 7 8 mph 1010.5mb 75f 74f
2:48am 6 7 mph 1010.3mb 75f 74f
2:42am 6 7 mph 1010.4mb 75f -
2:36am 7 7 mph 1010.4mb 75f -
2:30am 7 8 mph 1010.3mb 75f 74f
2:24am 6 7 mph 1010.3mb 75f 74f
2:18am 6 7 mph 1010.3mb 74f 74f
2:12am 6 6 mph 1010.3mb 74f 75f
2:06am 3 5 mph 1010.3mb 74f 75f
2:00am 3 6 mph 1010.2mb 74f 75f
1:54am 5 6 mph 1010.3mb 74f 75f
1:48am 5 6 mph 1010.3mb 75f 75f
1:42am 5 6 mph 1010.3mb - -
1:36am 5 6 mph 1010.4mb - -
1:30am 5 6 mph 1010.4mb 74f 75f
1:24am 6 7 mph 1010.5mb 74f 76f
1:18am 6 6 mph 1010.5mb 74f 76f
1:12am 3 3 mph 1010.5mb 74f 76f
1:06am 3 3 mph 1010.5mb 75f 76f
1:00am 2 2 mph 1010.4mb 75f 77f
12:54am  -  2 mph 1010.4mb 75f 77f
12:48am 2 2 mph 1010.5mb 75f 77f
12:42am  -  1 mph 1010.5mb 75f 77f
12:36am  -  2 mph 1010.4mb 75f 77f
12:30am 3 6 mph 1010.4mb 75f 77f
12:24am 5 6 mph 1010.5mb 75f 77f
12:18am 2 3 mph 1010.6mb 75f 77f
12:12am 1 3 mph 1010.6mb 76f 77f
12:06am 3 7 mph 1010.7mb 76f 76f
12:00am 3 6 mph 1010.8mb 76f 76f
Thu 07/20 11:54pm 2 6 mph 1010.5mb 76f 77f
11:48pm 6 8 mph 1010.6mb - -
11:42pm 6 9 mph 1010.5mb 76f 78f
11:36pm 5 7 mph 1010.5mb 76f 78f
11:30pm 6 9 mph 1010.5mb 76f 78f
11:24pm 8 10 mph 1010.5mb 76f 78f
11:18pm 8 9 mph 1010.5mb 76f 78f
11:12pm 7 8 mph 1010.5mb 77f 78f
11:06pm 8 9 mph 1010.6mb 77f 78f
11:00pm 7 8 mph 1010.6mb 77f 78f
10:54pm 7 7 mph 1010.6mb 77f 78f
10:48pm 7 8 mph - - -
10:42pm 7 8 mph 1010.7mb 76f 77f
10:36pm 7 8 mph 1010.6mb 76f 77f
10:30pm 7 8 mph 1010.5mb 76f 78f
10:24pm 7 8 mph 1010.6mb 76f 78f
10:18pm 8 8 mph - - -
10:12pm 8 9 mph 1010.5mb 76f 77f
10:06pm 8 8 mph 1010.6mb 75f 77f
10:00pm 7 8 mph 1010.8mb 75f 78f
9:54pm 7 8 mph 1010.9mb 75f 78f
9:48pm 7 7 mph 1010.7mb - -
9:42pm 7 9 mph 1010.5mb 74f 78f
9:36pm 8 10 mph 1010.7mb 73f 79f
9:30pm 9 10 mph 1010.9mb 73f 79f
9:24pm 7 8 mph 1010.9mb 72f 79f
9:18pm 8 9 mph 1010.9mb - -
9:12pm 8 11 mph 1010.9mb 70f 79f
9:06pm 10 13 mph 1010.8mb 70f 79f
9:00pm 10 13 mph 1010.8mb 70f 79f
8:54pm 9 11 mph 1010.8mb 70f 79f
8:48pm 9 11 mph 1010.8mb 70f 79f
8:42pm 10 14 mph 1010.7mb 69f 79f
8:36pm 14 15 mph 1010.5mb 69f 79f
8:30pm 15 17 mph 1010.6mb 69f 79f
8:24pm 15 18 mph 1010.6mb 69f 79f
8:18pm 15 17 mph - - -
8:12pm 15 16 mph 1010.7mb 69f 78f
8:06pm 14 15 mph 1010.4mb 69f 78f
8:00pm 14 16 mph 1010.5mb 69f 78f
7:54pm 14 16 mph 1010.9mb 69f 79f
7:48pm 10 13 mph 1010.5mb - -
7:42pm 10 13 mph 1010.6mb 70f 79f
7:36pm 10 15 mph 1010.7mb 70f 79f
7:30pm 13 14 mph 1010.6mb 70f 80f
7:24pm 10 11 mph 1011.1mb 70f 80f
7:18pm 10 11 mph 1011.1mb - -
7:12pm 9 10 mph 1011.1mb 70f 80f
7:06pm 10 13 mph 1011.1mb 70f 80f
7:00pm 11 15 mph 1011mb 70f 81f
6:54pm 14 14 mph 1010.8mb 70f 81f
6:48pm 13 14 mph 1011mb - -
6:42pm 11 14 mph 1010.9mb 70f 81f
6:36pm 14 16 mph 1010.9mb 71f 81f
6:30pm 14 15 mph 1010.9mb 71f 81f
6:24pm 13 15 mph 1010.9mb 71f 81f
6:18pm 14 14 mph - - -
6:12pm 13 15 mph 1010.9mb 71f 82f
6:06pm 14 15 mph 1011mb 72f 82f
6:00pm 13 15 mph 1011.1mb 73f 82f
5:54pm 13 14 mph 1011.1mb 73f 82f
5:48pm 11 14 mph 1011.2mb - -
5:42pm 13 14 mph 1011.3mb 74f 83f
5:36pm 14 15 mph 1011.3mb 74f 84f
5:30pm 14 15 mph 1011.3mb 75f 83f
5:24pm 14 16 mph 1011.4mb 76f 82f
5:18pm 14 16 mph 1011.4mb 77f 83f
5:12pm 16 18 mph 1011.3mb 77f 83f
5:06pm 15 18 mph 1011.4mb 77f 83f
5:00pm 17 20 mph 1011.5mb 77f 84f
4:54pm 16 18 mph 1011.5mb 77f 83f
4:48pm 16 21 mph 1011.5mb 77f 83f
4:42pm 18 21 mph 1011.5mb 77f 83f
4:36pm 15 18 mph 1011.6mb 77f 83f
4:30pm 14 17 mph 1011.7mb 77f 83f
4:24pm 16 18 mph 1011.8mb 77f 83f
4:18pm 14 18 mph 1011.7mb 77f 83f
4:12pm 15 22 mph 1011.8mb 77f 83f
4:06pm 18 21 mph 1011.7mb 77f 83f
4:00pm 17 20 mph 1011.7mb 77f 84f
3:54pm 18 20 mph 1011.7mb 77f 84f
3:48pm 18 22 mph 1011.6mb 77f 84f
3:42pm 20 21 mph 1011.7mb 77f 84f
3:36pm 15 20 mph 1011.7mb 77f 84f
3:30pm 14 17 mph 1011.6mb 77f 85f
3:24pm 16 18 mph 1011.6mb 77f 86f
3:18pm 14 17 mph 1011.7mb 77f 87f
3:12pm 16 18 mph 1011.8mb 77f 85f
3:06pm 16 21 mph 1012mb 77f 85f
3:00pm 16 20 mph 1012mb 77f 86f
2:48pm 15 17 mph - - -
2:42pm 16 18 mph 1012.2mb 77f 85f
2:36pm 14 16 mph 1012.3mb 76f 85f
2:30pm 14 18 mph 1012.3mb 76f 86f
2:24pm 16 18 mph 1012.2mb 76f 86f
2:18pm 15 17 mph 1012.4mb 76f 85f
2:12pm 14 15 mph 1012.5mb 76f 85f
2:06pm 13 15 mph 1012.6mb 76f 85f
2:00pm 11 14 mph 1012.5mb 76f 85f
1:54pm 14 15 mph 1012.5mb 76f 85f
1:48pm 10 13 mph 1012.6mb 75f 85f
1:42pm 13 15 mph 1012.7mb 75f 86f
1:36pm 11 14 mph 1012.7mb 75f 85f
1:30pm 9 11 mph 1012.8mb 75f 84f
1:24pm 8 14 mph 1013mb 75f 85f
1:18pm 8 14 mph 1013mb 75f 86f
1:12pm 13 16 mph 1013mb 75f 87f
1:06pm 15 17 mph 1013.2mb 75f 86f
1:00pm 11 13 mph 1013.3mb 75f 85f
12:54pm 7 13 mph 1013.5mb 75f 83f
12:48pm 9 14 mph - - -
12:42pm 10 14 mph 1013.7mb 74f 83f
12:36pm 6 10 mph 1013.8mb 74f 83f
12:30pm 8 10 mph 1014mb 74f 81f
12:24pm 9 11 mph 1014.2mb 74f 82f
12:18pm 10 11 mph 1014.2mb 74f 81f
12:12pm 9 11 mph 1014.2mb 74f 80f
12:06pm 9 10 mph 1014.1mb 74f 81f
11:54am 7 9 mph 1014.3mb 74f 80f
11:48am 9 11 mph - - -
11:42am 9 10 mph 1014.3mb 73f 80f
11:36am 8 9 mph 1014.3mb 73f 80f
11:30am 9 10 mph 1014.3mb 73f 80f
11:24am 9 9 mph 1014.4mb 73f 80f
11:18am 8 10 mph 1014.5mb 73f 80f
11:12am 9 10 mph 1014.6mb 73f 80f
11:06am 9 10 mph 1014.5mb 73f 78f
11:00am 10 11 mph 1014.6mb 73f 78f
10:54am 10 10 mph 1014.6mb 74f 79f
10:48am 9 10 mph 1014.6mb 74f 77f
10:42am 9 10 mph 1014.7mb 74f 77f
10:36am 8 9 mph 1014.8mb 74f 78f
10:30am 7 8 mph 1014.7mb 74f 78f
10:24am 7 8 mph 1014.6mb 73f 79f
10:18am 8 8 mph - - -
10:12am 7 8 mph 1014.7mb 73f 78f
10:06am 7 8 mph 1014.8mb 73f 78f
10:00am 5 6 mph 1014.9mb 73f 78f
9:54am 3 3 mph 1014.9mb 73f 78f
9:48am 3 5 mph - - -
9:42am 3 3 mph 1014.9mb 73f 77f
9:36am 2 3 mph 1014.8mb 73f 77f
9:30am 2 3 mph 1014.8mb 72f 77f
9:24am 3 3 mph 1014.9mb 72f 77f
9:18am 2 3 mph 1014.9mb 72f 77f
9:12am 3 3 mph 1014.8mb 72f 77f
9:06am 2 3 mph 1014.9mb 72f 77f
9:00am 2 3 mph 1015mb 71f 76f
8:54am 2 3 mph 1015mb 71f 76f
8:48am 1 2 mph - - -
8:42am 1 2 mph 1015.1mb 71f 77f
8:36am 1 2 mph 1015.2mb 71f 76f
8:30am 2 3 mph 1015.2mb 71f 76f
8:24am 2 3 mph 1015.2mb 71f 76f
8:18am 1 2 mph 1015.2mb 71f 77f
8:12am 2 2 mph 1015.3mb 71f 76f
8:06am 2 2 mph 1015.3mb 71f 75f
8:00am 2 3 mph 1015.3mb 71f 75f
7:54am 2 3 mph 1015.3mb 71f 74f
7:48am 2 3 mph 1015.3mb 71f 75f
7:42am 2 3 mph 1015.2mb 71f 74f
7:36am 2 2 mph 1015.1mb 71f 75f
7:30am 2 2 mph 1015mb 71f 76f
7:24am 2 2 mph 1014.9mb 71f 75f
7:18am 2 2 mph 1014.9mb 71f 76f
7:12am  -  2 mph 1014.8mb 70f 76f
7:06am 1 2 mph 1014.8mb 70f 77f
7:00am  -  1 mph 1014.8mb 71f 78f
6:54am  -  0 mph 1014.7mb 71f 78f
6:48am  -  1 mph - - -
6:42am  -  2 mph 1014.6mb 71f 76f
6:36am 1 2 mph 1014.6mb 71f 76f
6:30am  -  1 mph 1014.5mb 71f 77f
6:24am  -  1 mph 1014.5mb 72f 75f
6:18am  -  1 mph 1014.4mb 72f 73f
6:12am 2 2 mph 1014.2mb 72f 73f
6:06am 2 2 mph 1014.2mb 72f 73f
6:00am 1 2 mph 1014.2mb 72f 73f
5:54am 3 3 mph 1014.2mb 73f 72f
5:48am 2 2 mph - - -
5:42am  -  2 mph 1014.2mb 72f 72f
5:36am 2 2 mph 1014.3mb 72f 72f
5:30am  -  1 mph 1014.4mb 73f 72f
5:24am  -  0 mph 1014.3mb 73f 72f
5:18am  -  1 mph - - -
5:12am 1 2 mph 1014.1mb 73f 72f
5:06am 1 1 mph 1014.1mb 73f 72f
5:00am  -  1 mph 1014.3mb 73f 72f
4:54am 1 2 mph 1014.4mb 73f 72f
4:48am 1 2 mph - - -
4:42am 2 5 mph 1014mb 73f 72f
4:36am 3 5 mph 1014.1mb 73f 72f
4:30am 3 3 mph 1014mb 73f 72f
4:24am 2 3 mph 1014mb 73f 72f
4:18am 2 3 mph 1014.2mb 73f 73f
4:12am 1 2 mph 1014.4mb 73f 72f
4:06am 2 3 mph 1014.5mb 73f 72f
4:00am 2 3 mph 1014.4mb 73f 72f
3:54am 3 3 mph 1014.4mb 73f 73f
3:48am 2 2 mph - - -
3:42am 2 2 mph 1014.2mb 73f 73f
3:36am 1 2 mph 1014.2mb 72f 73f
3:30am 2 5 mph 1014.3mb 72f 73f
3:24am 5 6 mph 1014.4mb 73f 73f
3:18am 6 6 mph 1014.4mb 73f 73f
3:12am 5 5 mph 1014.4mb 73f 73f
3:06am 3 3 mph 1014.5mb 73f 73f
3:00am 3 3 mph 1014.5mb 73f 73f
2:54am 3 3 mph 1014.5mb 73f 73f
2:48am 3 7 mph 1014.5mb - -
2:42am 7 7 mph 1014.4mb 73f 73f
2:36am 7 7 mph 1014.5mb 73f 74f
2:30am 6 7 mph 1014.5mb 73f 74f
2:24am 6 6 mph 1014.5mb 73f 74f
2:18am 2 3 mph - - -
2:12am 2 3 mph 1014.6mb 73f 74f
2:06am 3 5 mph 1014.7mb 73f 74f
2:00am 5 6 mph 1014.7mb 73f 74f
1:54am 5 6 mph 1014.7mb 74f 74f
1:48am 5 6 mph - - -
1:42am 5 6 mph 1014.7mb 74f 74f
1:36am 6 7 mph 1014.8mb 74f 74f
1:30am 6 8 mph 1014.9mb 74f 74f
1:24am 8 9 mph 1014.9mb 74f 74f
1:18am 8 9 mph - - -
1:12am 8 8 mph 1014.9mb 74f 74f
1:06am 7 8 mph 1014.9mb 74f 75f
1:00am 8 9 mph 1014.9mb 74f 75f
12:54am 8 9 mph 1015mb 74f 75f
12:48am 8 10 mph - - -
12:42am 7 9 mph 1015.1mb 74f 75f
12:36am 8 9 mph 1015.1mb 74f 75f
12:30am 8 9 mph 1015.1mb 74f 75f
12:24am 8 9 mph 1015.1mb 74f 75f
12:18am 8 9 mph 1015.1mb 74f 75f
12:12am 8 9 mph 1015.1mb 74f 75f
12:06am 8 10 mph 1015mb 74f 76f
12:00am 9 10 mph 1015mb 74f 76f
Wed 07/19 11:54pm 8 10 mph 1015.1mb 74f 76f
11:48pm 10 11 mph 1015.1mb - -
11:42pm 10 11 mph 1015mb 74f 76f
11:36pm 9 10 mph 1015mb 74f 76f
11:30pm 10 11 mph 1015mb 74f 76f
11:24pm 11 13 mph 1015.1mb 74f 76f
11:18pm 11 14 mph - - -
11:12pm 13 15 mph 1015.1mb 74f 76f
11:06pm 13 16 mph 1015mb 74f 76f
11:00pm 13 14 mph 1015.2mb 75f 76f
10:54pm 13 15 mph 1015.2mb 75f 76f
10:48pm 13 14 mph - - -
10:42pm 11 14 mph 1015.2mb 75f 76f
10:36pm 11 14 mph 1015.2mb 75f 76f
10:30pm 11 15 mph 1015.2mb 76f 76f
10:24pm 13 14 mph 1015.2mb 76f 76f
10:18pm 13 15 mph 1015.2mb - -
10:12pm 13 14 mph 1015.2mb 76f 76f
10:06pm 14 16 mph 1015.3mb 76f 76f
10:00pm 14 15 mph 1015.2mb 76f 76f
9:54pm 14 15 mph 1015.2mb 76f 76f
9:48pm 13 14 mph 1015.2mb - -
9:42pm 13 14 mph 1015.1mb 76f 76f
9:36pm 13 15 mph 1015mb 76f 76f
9:30pm 13 15 mph 1015mb 76f 76f
9:24pm 11 13 mph 1015mb 76f 76f
9:18pm 10 13 mph 1014.9mb - -
9:12pm 10 13 mph 1014.9mb 76f 76f
9:06pm 10 10 mph 1014.9mb 76f 77f
9:00pm 9 10 mph 1014.9mb 75f 77f
8:54pm 8 9 mph 1014.8mb 75f 77f
8:48pm 8 9 mph 1014.7mb - -
8:42pm 8 9 mph 1014.6mb 74f 77f
8:36pm 8 9 mph 1014.5mb 73f 77f
8:30pm 7 9 mph 1014.5mb 72f 77f
8:24pm 9 11 mph 1014.4mb 71f 77f
8:18pm 9 10 mph 1014.4mb - -
8:12pm 10 13 mph 1014.4mb 69f 78f
8:06pm 11 13 mph 1014.5mb 69f 78f
8:00pm 9 11 mph 1014.5mb 69f 78f
7:54pm 10 14 mph 1014.5mb 69f 78f
7:48pm 11 14 mph 1014.5mb - -
7:42pm 10 14 mph 1014.5mb 69f 79f
7:36pm 11 14 mph 1014.5mb 69f 79f
7:30pm 11 14 mph 1014.4mb 70f 79f
7:24pm 15 17 mph 1014.3mb 70f 79f
7:18pm 11 13 mph 1014.2mb - -
7:12pm 11 14 mph 1014.1mb 70f 79f
7:06pm 13 15 mph 1014.1mb 71f 79f
7:00pm 14 16 mph 1014.1mb 70f 79f
6:54pm 15 20 mph 1014.1mb 70f 80f
6:48pm 14 17 mph 1014mb - -
6:42pm 16 20 mph 1014mb 69f 80f
6:36pm 14 17 mph 1014mb 69f 80f
6:30pm 14 15 mph 1013.9mb 68f 80f
6:24pm 14 16 mph 1014mb 68f 80f
6:18pm 14 15 mph 1014mb - -
6:12pm 9 14 mph 1014.1mb 68f 80f
6:06pm 13 15 mph 1014mb 69f 81f
6:00pm 16 18 mph 1014mb 69f 81f
5:54pm 16 20 mph 1014mb 69f 81f
5:48pm 16 20 mph 1014mb - -
5:42pm 15 17 mph 1014.1mb 69f 81f
5:36pm 15 20 mph 1014.1mb 69f 81f
5:30pm 17 18 mph 1014mb 69f 81f
5:24pm 17 20 mph 1014mb 70f 81f
5:18pm 14 18 mph 1014mb 70f 81f
5:12pm 17 18 mph 1014mb 70f 82f
5:06pm 17 20 mph 1014.1mb 71f 82f
5:00pm 13 18 mph 1014.1mb 71f 82f
4:54pm 14 17 mph 1014.2mb 73f 82f
4:48pm 14 18 mph 1014.3mb 74f 82f
4:42pm 14 17 mph 1014.3mb 75f 82f
4:36pm 17 21 mph 1014.2mb 75f 82f
4:30pm 16 21 mph 1014.3mb 75f 82f
4:24pm 18 22 mph 1014.3mb 75f 82f
4:18pm 16 20 mph - - -
4:12pm 17 22 mph 1014.4mb 75f 82f
4:06pm 18 22 mph 1014.4mb 75f 82f
4:00pm 18 21 mph 1014.4mb 75f 82f
3:54pm 17 20 mph 1014.5mb 75f 82f
3:48pm 15 22 mph - - -
3:42pm 16 21 mph 1014.5mb 75f 82f
3:36pm 17 22 mph 1014.5mb 75f 83f
3:30pm 20 23 mph 1014.5mb 75f 83f
3:24pm 20 22 mph 1014.6mb 75f 83f
3:18pm 17 22 mph - - -
3:12pm 20 23 mph 1014.5mb 75f 83f
3:06pm 15 20 mph 1014.8mb 75f 80f
3:00pm 14 16 mph 1014.8mb 75f 79f
2:54pm 14 20 mph 1014.8mb 75f 78f
2:48pm 18 21 mph 1014.8mb 75f 83f
2:42pm 18 22 mph 1014.9mb 75f 83f
2:36pm 18 22 mph 1014.9mb 75f 83f
2:30pm 18 23 mph 1015mb 75f 82f
2:24pm 14 17 mph 1015.1mb 75f 78f
2:18pm 13 15 mph - - -
2:12pm 15 17 mph 1015.2mb 75f 77f
2:06pm 15 17 mph 1015.3mb 75f 78f
2:00pm 14 16 mph 1015.4mb 75f 78f
1:54pm 14 18 mph 1015.4mb 74f 77f
1:48pm 17 20 mph - - -
1:42pm 17 20 mph 1015.5mb 74f 77f
1:36pm 17 21 mph 1015.6mb 74f 77f
1:30pm 16 20 mph 1015.6mb 74f 77f
1:24pm 17 21 mph 1015.7mb 74f 77f
1:18pm 17 18 mph 1015.7mb 74f 78f
1:12pm 15 17 mph 1015.7mb 74f 78f
1:06pm 16 20 mph 1015.8mb 74f 78f
1:00pm 15 20 mph 1015.9mb 74f 78f
12:54pm 16 18 mph 1016mb 73f 77f
12:48pm 16 18 mph 1016mb 73f 78f
12:42pm 15 20 mph 1016.1mb 73f 77f
12:36pm 15 17 mph 1016.2mb 73f 77f
12:30pm 16 20 mph 1016.3mb 73f 77f
12:24pm 16 18 mph 1016.3mb 73f 78f
12:18pm 13 16 mph 1016.4mb 73f 78f
12:12pm 14 16 mph 1016.5mb 73f 78f
12:06pm 13 14 mph 1016.5mb 73f 78f
12:00pm 11 14 mph 1016.5mb 73f 78f
11:54am 13 14 mph 1016.6mb 73f 78f
11:48am 11 14 mph - - -
11:42am 11 14 mph 1016.7mb 73f 78f
11:36am 10 14 mph 1016.8mb 73f 78f
11:30am 8 11 mph 1016.8mb 73f 78f